Time;durP1;ratioP1;P1;durP2;ratioP2;P2;SDS_P1;SDS_P2;PMS_P1;PMS_P2;Temp;Humidity;BMP_temperature;BMP_pressure;BME280_temperature;BME280_humidity;BME280_pressure;Samples;Min_cycle;Max_cycle;Signal;HPM_P1;HPM_P2
2022/12/25 00:00:33;;;;;;;26.73;10.75;;;5.50;99.90;;;;;;5055666;28;20097;-73
2022/12/25 00:02:59;;;;;;;20.02;10.98;;;5.60;99.90;;;;;;5055379;28;20054;-73
2022/12/25 00:05:25;;;;;;;23.05;10.23;;;5.30;99.90;;;;;;5056092;28;20429;-73
2022/12/25 00:07:50;;;;;;;21.98;10.80;;;5.40;99.90;;;;;;5073533;28;20044;-73
2022/12/25 00:10:16;;;;;;;25.88;10.27;;;5.50;99.90;;;;;;5073504;28;20093;-73
2022/12/25 00:12:41;;;;;;;22.08;10.98;;;5.50;99.90;;;;;;5073096;28;20071;-72
2022/12/25 00:15:07;;;;;;;28.40;12.52;;;5.40;99.90;;;;;;5073305;28;20040;-73
2022/12/25 00:17:33;;;;;;;19.25;11.57;;;5.50;99.90;;;;;;5073301;28;20036;-73
2022/12/25 00:19:58;;;;;;;27.10;11.45;;;5.30;99.90;;;;;;5055576;28;20032;-73
2022/12/25 00:22:24;;;;;;;27.45;14.05;;;5.50;99.90;;;;;;5055333;28;20076;-73
2022/12/25 00:24:50;;;;;;;20.27;10.85;;;5.30;99.90;;;;;;5055249;28;20048;-73
2022/12/25 00:27:15;;;;;;;25.67;12.75;;;5.60;99.90;;;;;;5073142;28;20040;-73
2022/12/25 00:29:41;;;;;;;28.33;13.52;;;5.60;99.90;;;;;;5072894;28;20049;-73
2022/12/25 00:32:07;;;;;;;26.00;12.65;;;5.30;99.90;;;;;;5072764;28;20052;-73
2022/12/25 00:34:33;;;;;;;23.88;12.80;;;5.30;99.90;;;;;;5073114;28;20037;-72
2022/12/25 00:36:58;;;;;;;30.27;14.07;;;5.30;99.90;;;;;;5055249;28;20509;-73
2022/12/25 00:39:24;;;;;;;31.38;13.45;;;5.20;99.90;;;;;;5055080;28;20094;-73
2022/12/25 00:44:34;;;;;;;24.60;13.30;;;5.50;99.90;;;;;;5072850;28;20446;-73
2022/12/25 00:47:00;;;;;;;20.70;12.77;;;5.20;99.90;;;;;;5054848;28;20040;-73
2022/12/25 00:49:25;;;;;;;20.98;11.32;;;5.20;99.90;;;;;;5072662;28;20037;-73
2022/12/25 00:51:51;;;;;;;27.17;12.18;;;5.30;99.90;;;;;;5054704;28;20044;-73
2022/12/25 00:54:17;;;;;;;26.25;12.75;;;5.40;99.90;;;;;;5054386;28;20097;-73
2022/12/25 00:56:43;;;;;;;23.63;11.30;;;5.30;99.90;;;;;;5072479;28;20490;-73
2022/12/25 00:59:09;;;;;;;24.52;12.77;;;5.20;99.90;;;;;;5072645;28;20037;-73
2022/12/25 01:01:35;;;;;;;25.63;11.93;;;5.20;99.90;;;;;;5072672;28;20134;-73
2022/12/25 01:04:00;;;;;;;31.25;12.95;;;5.30;99.90;;;;;;5054204;28;20120;-73
2022/12/25 01:06:26;;;;;;;27.75;13.02;;;5.30;99.90;;;;;;5072364;28;20033;-73
2022/12/25 01:11:36;;;;;;;30.05;12.18;;;5.20;99.90;;;;;;5072421;28;20098;-73
2022/12/25 01:14:02;;;;;;;26.52;12.70;;;5.10;99.90;;;;;;5054025;28;20052;-73
2022/12/25 01:16:28;;;;;;;28.05;12.65;;;5.30;99.90;;;;;;5072257;28;20115;-73
2022/12/25 01:18:53;;;;;;;27.67;13.05;;;5.00;99.90;;;;;;5072033;28;20040;-73
2022/12/25 01:21:20;;;;;;;21.05;10.95;;;5.10;99.90;;;;;;5072126;28;20047;-73
2022/12/25 01:23:47;;;;;;;29.20;12.15;;;5.20;99.90;;;;;;5054019;28;20044;-73
2022/12/25 01:26:14;;;;;;;25.08;12.15;;;5.30;99.90;;;;;;5072004;28;20515;-73
2022/12/25 01:28:41;;;;;;;31.92;13.23;;;5.10;99.90;;;;;;5072068;28;20032;-73
2022/12/25 01:31:13;;;;;;;24.25;11.30;;;5.10;99.90;;;;;;5071874;28;20486;-73
2022/12/25 01:33:40;;;;;;;29.20;13.35;;;5.40;99.90;;;;;;5053739;28;20045;-73
2022/12/25 01:36:24;;;;;;;24.70;11.88;;;5.20;99.90;;;;;;5053827;28;20041;-73
2022/12/25 01:38:51;;;;;;;29.08;13.65;;;5.20;99.90;;;;;;5054006;28;20388;-73
2022/12/25 01:41:20;;;;;;;30.92;13.43;;;5.40;99.90;;;;;;5071811;28;20490;-73
2022/12/25 01:44:15;;;;;;;33.15;14.05;;;5.40;99.90;;;;;;5053049;28;20060;-73
2022/12/25 01:46:41;;;;;;;30.80;12.90;;;5.30;99.90;;;;;;5000731;28;20049;-73
2022/12/25 01:49:10;;;;;;;32.20;13.45;;;5.50;99.90;;;;;;5053666;28;20044;-73
2022/12/25 01:51:46;;;;;;;29.35;12.80;;;5.40;99.90;;;;;;5053764;28;20040;-73
2022/12/25 01:54:20;;;;;;;28.85;14.45;;;5.40;99.90;;;;;;5071417;28;20054;-73
2022/12/25 01:56:48;;;;;;;33.10;13.75;;;5.80;99.90;;;;;;5053906;28;20070;-73
2022/12/25 01:59:18;;;;;;;40.58;15.30;;;5.90;99.90;;;;;;5071505;28;20098;-73
2022/12/25 02:01:44;;;;;;;38.47;14.52;;;5.90;99.90;;;;;;5071604;28;20409;-73
2022/12/25 02:04:37;;;;;;;40.30;15.77;;;5.70;99.90;;;;;;5053454;28;20037;-73
2022/12/25 02:07:05;;;;;;;37.47;14.02;;;6.10;99.90;;;;;;5053984;28;20036;-73
2022/12/25 02:09:31;;;;;;;45.08;15.82;;;5.90;99.90;;;;;;5053447;28;20047;-74
2022/12/25 02:11:57;;;;;;;44.15;16.35;;;6.10;99.90;;;;;;5053445;28;20098;-73
2022/12/25 02:14:26;;;;;;;58.00;20.35;;;5.90;99.90;;;;;;5071425;28;20041;-73
2022/12/25 02:17:00;;;;;;;44.53;16.67;;;6.00;99.90;;;;;;5053607;28;20086;-73
2022/12/25 02:20:05;;;;;;;55.60;17.42;;;6.10;99.90;;;;;;5071441;28;20037;-73
2022/12/25 02:23:04;;;;;;;39.33;16.40;;;6.30;99.90;;;;;;5022652;28;20534;-73
2022/12/25 02:25:42;;;;;;;58.03;20.90;;;6.00;99.90;;;;;;5071453;28;20123;-73
2022/12/25 02:28:28;;;;;;;59.50;18.40;;;6.10;99.90;;;;;;5053391;28;20410;-73
2022/12/25 02:31:07;;;;;;;48.67;18.88;;;6.10;99.90;;;;;;5071446;28;20119;-73
2022/12/25 02:36:28;;;;;;;51.47;19.15;;;6.20;99.90;;;;;;5071297;28;20068;-73
2022/12/25 02:41:46;;;;;;;44.03;17.40;;;6.40;99.90;;;;;;5053519;28;20121;-73
2022/12/25 03:06:41;;;;;;;58.45;20.95;;;6.80;99.90;;;;;;5056966;28;20147;-73
2022/12/25 03:12:41;;;;;;;42.30;17.90;;;6.70;99.90;;;;;;5074281;28;20049;-73
2022/12/25 03:17:56;;;;;;;46.25;21.98;;;6.90;99.90;;;;;;5074551;28;20041;-74
2022/12/25 03:28:35;;;;;;;53.60;21.67;;;7.10;99.90;;;;;;5051075;28;20044;-74
2022/12/25 03:31:15;;;;;;;55.38;22.85;;;7.00;99.90;;;;;;5074222;28;20044;-74
2022/12/25 03:37:15;;;;;;;55.78;21.02;;;7.10;99.90;;;;;;5074870;28;20047;-73
2022/12/25 04:38:00;;;;;;;49.80;18.73;;;7.30;99.90;;;;;;5072828;28;20478;-73
2022/12/25 04:40:26;;;;;;;43.45;20.13;;;7.40;99.90;;;;;;5072882;28;20068;-74
2022/12/25 04:42:51;;;;;;;40.38;19.35;;;7.50;99.90;;;;;;5054513;28;20045;-74
2022/12/25 04:45:17;;;;;;;48.40;20.13;;;7.30;99.90;;;;;;5054864;28;20067;-74
2022/12/25 04:47:43;;;;;;;49.88;21.70;;;7.40;99.90;;;;;;5054767;28;20070;-74
2022/12/25 04:50:08;;;;;;;53.17;20.27;;;7.40;99.90;;;;;;5054762;28;20048;-74
2022/12/25 04:52:39;;;;;;;54.00;22.40;;;7.50;99.90;;;;;;5054587;28;20110;-73
2022/12/25 04:55:06;;;;;;;49.90;20.50;;;7.60;99.90;;;;;;5054985;28;20036;-73
2022/12/25 04:57:32;;;;;;;48.38;21.65;;;7.50;99.90;;;;;;5054775;28;20051;-74
2022/12/25 04:59:57;;;;;;;54.33;24.00;;;7.60;99.90;;;;;;5054874;28;20124;-74
2022/12/25 05:02:23;;;;;;;59.13;21.98;;;7.60;99.90;;;;;;5054278;28;20567;-74
2022/12/25 05:04:48;;;;;;;70.25;25.00;;;7.70;99.90;;;;;;5054578;28;20044;-74
2022/12/25 05:07:14;;;;;;;61.70;24.20;;;7.60;99.90;;;;;;5054437;28;20044;-74
2022/12/25 05:09:40;;;;;;;56.33;23.05;;;7.70;99.90;;;;;;5054466;28;20099;-74
2022/12/25 05:12:07;;;;;;;52.58;22.33;;;7.60;99.90;;;;;;5054330;28;20052;-74
2022/12/25 05:14:32;;;;;;;61.47;25.65;;;7.80;99.90;;;;;;5037171;28;20072;-74
2022/12/25 05:16:58;;;;;;;62.50;23.15;;;7.60;99.90;;;;;;5054207;28;20074;-75
2022/12/25 05:19:24;;;;;;;57.85;23.65;;;7.80;99.90;;;;;;5054271;28;20094;-74
2022/12/25 05:21:49;;;;;;;57.15;22.63;;;7.70;99.90;;;;;;5054437;28;20418;-74
2022/12/25 05:24:15;;;;;;;54.50;22.27;;;7.80;99.90;;;;;;5053872;28;20490;-74
2022/12/25 05:26:40;;;;;;;61.15;22.58;;;7.70;99.90;;;;;;5054153;28;20086;-74
2022/12/25 05:29:06;;;;;;;73.03;25.38;;;7.80;99.90;;;;;;5054230;28;20127;-74
2022/12/25 05:31:31;;;;;;;64.57;26.17;;;7.70;99.90;;;;;;5071979;28;20675;-74
2022/12/25 05:33:57;;;;;;;65.78;24.65;;;7.70;99.90;;;;;;5053559;28;20048;-74
2022/12/25 05:36:22;;;;;;;65.68;24.88;;;7.70;99.90;;;;;;5054028;28;20119;-74
2022/12/25 05:38:48;;;;;;;62.40;24.15;;;7.80;99.90;;;;;;5071625;28;20399;-74
2022/12/25 05:41:14;;;;;;;61.58;24.58;;;7.90;99.90;;;;;;5054198;28;20684;-74
2022/12/25 05:43:40;;;;;;;70.80;26.35;;;7.90;99.90;;;;;;5053673;28;20056;-74
2022/12/25 05:46:07;;;;;;;72.82;25.38;;;7.90;99.90;;;;;;5053852;28;20094;-74
2022/12/25 05:48:35;;;;;;;62.45;28.45;;;7.90;99.90;;;;;;5071906;28;20048;-74
2022/12/25 05:51:06;;;;;;;62.20;23.67;;;7.90;99.90;;;;;;5053798;28;20040;-74
2022/12/25 05:53:32;;;;;;;67.60;25.85;;;7.90;99.90;;;;;;5071532;28;20088;-74
2022/12/25 05:56:03;;;;;;;69.20;26.63;;;8.00;99.90;;;;;;5053632;28;20501;-74
2022/12/25 05:58:30;;;;;;;74.50;30.17;;;8.00;99.90;;;;;;5053600;28;20042;-74
2022/12/25 06:00:56;;;;;;;77.03;28.25;;;8.10;99.90;;;;;;5053902;28;20033;-74
2022/12/25 06:03:22;;;;;;;73.85;28.13;;;8.00;99.90;;;;;;5053294;28;20037;-74
2022/12/25 06:05:48;;;;;;;70.45;27.60;;;8.00;99.90;;;;;;5053844;28;20055;-74
2022/12/25 06:08:14;;;;;;;60.05;24.20;;;8.00;99.90;;;;;;5053456;28;20041;-74
2022/12/25 06:10:39;;;;;;;70.03;28.58;;;8.00;99.90;;;;;;5053775;28;20143;-75
2022/12/25 06:13:05;;;;;;;72.25;29.23;;;8.00;99.90;;;;;;5053182;28;20146;-74
2022/12/25 06:15:31;;;;;;;81.82;27.33;;;8.10;99.90;;;;;;5053783;28;20119;-74
2022/12/25 06:17:59;;;;;;;65.75;27.98;;;8.00;99.90;;;;;;5071576;28;20052;-74
2022/12/25 06:20:24;;;;;;;86.70;30.95;;;8.00;99.90;;;;;;5053701;28;20112;-74
2022/12/25 06:22:50;;;;;;;79.75;29.27;;;8.00;99.90;;;;;;5036809;28;20078;-74
2022/12/25 06:25:15;;;;;;;71.15;28.98;;;8.10;99.90;;;;;;5053422;28;20098;-75
2022/12/25 06:27:41;;;;;;;74.35;28.65;;;8.00;99.90;;;;;;5053268;28;20037;-74
2022/12/25 06:30:07;;;;;;;68.75;30.30;;;8.10;99.90;;;;;;5056295;28;20132;-74
2022/12/25 06:32:33;;;;;;;70.68;27.90;;;8.00;99.90;;;;;;5057088;28;20111;-74
2022/12/25 06:34:58;;;;;;;73.90;29.15;;;8.10;99.90;;;;;;5075551;28;20043;-75
2022/12/25 06:37:24;;;;;;;78.30;29.48;;;8.20;99.90;;;;;;5075330;28;20040;-74
2022/12/25 06:39:49;;;;;;;85.20;31.73;;;8.10;99.90;;;;;;5075200;28;20089;-74
2022/12/25 06:42:15;;;;;;;67.65;26.55;;;8.10;99.90;;;;;;5075210;28;20052;-74
2022/12/25 06:44:41;;;;;;;59.08;25.65;;;8.20;99.90;;;;;;5057952;28;20109;-74
2022/12/25 06:47:06;;;;;;;95.85;32.83;;;8.10;99.90;;;;;;5076509;28;20494;-74
2022/12/25 06:49:32;;;;;;;73.43;28.15;;;8.20;99.90;;;;;;5057597;28;20147;-75
2022/12/25 06:51:57;;;;;;;73.40;28.88;;;8.30;99.90;;;;;;5057168;28;20069;-74
2022/12/25 06:54:23;;;;;;;61.10;26.55;;;8.20;99.90;;;;;;5056796;28;20043;-74
2022/12/25 06:56:49;;;;;;;73.82;29.10;;;8.20;99.90;;;;;;5074922;28;20043;-74
2022/12/25 06:59:15;;;;;;;63.95;27.58;;;8.20;99.90;;;;;;5074721;28;20482;-74
2022/12/25 07:01:51;;;;;;;72.35;29.00;;;8.20;99.90;;;;;;5056966;28;20043;-74
2022/12/25 07:04:39;;;;;;;71.05;29.85;;;8.20;99.90;;;;;;5056520;28;20126;-75
2022/12/25 07:07:06;;;;;;;67.82;28.83;;;8.20;99.90;;;;;;5040281;28;20040;-74
2022/12/25 07:09:32;;;;;;;71.47;28.85;;;8.20;99.90;;;;;;5056818;28;20037;-74
2022/12/25 07:12:05;;;;;;;83.13;32.75;;;8.30;99.90;;;;;;5039940;28;20169;-74
2022/12/25 07:14:31;;;;;;;78.55;28.58;;;8.30;99.90;;;;;;5074487;28;20098;-74
2022/12/25 07:16:57;;;;;;;95.80;34.17;;;8.30;99.90;;;;;;5056800;28;20076;-74
2022/12/25 07:19:22;;;;;;;89.60;33.13;;;8.30;99.90;;;;;;5056937;28;20037;-75
2022/12/25 07:21:48;;;;;;;86.03;31.90;;;8.40;99.90;;;;;;5056530;28;20032;-74
2022/12/25 07:24:21;;;;;;;72.00;29.67;;;8.30;99.90;;;;;;5074136;28;20461;-74
2022/12/25 07:26:47;;;;;;;68.35;29.17;;;8.30;99.90;;;;;;5056789;28;20321;-74
2022/12/25 07:29:12;;;;;;;67.18;28.35;;;8.30;99.90;;;;;;5056535;28;20421;-74
2022/12/25 07:31:38;;;;;;;72.60;30.17;;;8.30;99.90;;;;;;5056732;28;20037;-74
2022/12/25 07:34:04;;;;;;;78.57;31.55;;;8.30;99.90;;;;;;5074019;28;20072;-74
2022/12/25 07:36:29;;;;;;;69.85;28.58;;;8.40;99.90;;;;;;5056296;28;20117;-74
2022/12/25 07:38:55;;;;;;;77.25;31.05;;;8.40;99.90;;;;;;5055977;28;20094;-75
2022/12/25 07:41:21;;;;;;;76.25;31.83;;;8.40;99.90;;;;;;5054813;28;20037;-75
2022/12/25 07:43:51;;;;;;;71.32;27.48;;;8.50;99.90;;;;;;5056085;28;20317;-74
2022/12/25 07:46:16;;;;;;;54.25;26.55;;;8.40;99.90;;;;;;5056374;28;20040;-75
2022/12/25 07:48:42;;;;;;;70.47;28.58;;;8.50;99.90;;;;;;5056156;28;20506;-74
2022/12/25 07:51:11;;;;;;;70.65;30.17;;;8.40;99.90;;;;;;5055906;28;20044;-74
2022/12/25 07:53:38;;;;;;;58.22;25.92;;;8.40;99.90;;;;;;5055625;28;20173;-75
2022/12/25 07:56:09;;;;;;;73.07;27.88;;;8.50;99.90;;;;;;5055875;28;20045;-76
2022/12/25 07:58:34;;;;;;;64.25;27.80;;;8.40;99.90;;;;;;5073846;28;20083;-74
2022/12/25 08:01:12;;;;;;;73.22;30.35;;;8.60;99.90;;;;;;5066632;28;20040;-72
2022/12/25 08:03:38;;;;;;;58.05;26.02;;;8.50;99.90;;;;;;5072358;28;20067;-73
2022/12/25 08:06:06;;;;;;;59.17;25.08;;;8.60;99.90;;;;;;5073165;28;20044;-74
2022/12/25 08:08:32;;;;;;;67.38;27.42;;;8.50;99.90;;;;;;5073381;28;20044;-74
2022/12/25 08:10:58;;;;;;;86.10;29.20;;;8.60;99.90;;;;;;5056514;28;20426;-74
2022/12/25 08:13:24;;;;;;;50.83;25.02;;;8.50;99.90;;;;;;5061427;28;20048;-73
2022/12/25 08:15:49;;;;;;;60.00;25.13;;;8.50;99.90;;;;;;5073278;28;20040;-74
2022/12/25 08:18:15;;;;;;;49.00;25.10;;;8.50;99.90;;;;;;5054940;28;20044;-73
2022/12/25 08:20:41;;;;;;;56.78;23.63;;;8.60;99.90;;;;;;5055114;28;20041;-74
2022/12/25 08:23:06;;;;;;;53.70;24.40;;;8.50;99.90;;;;;;5054840;28;20048;-74
2022/12/25 08:25:32;;;;;;;52.17;23.15;;;8.60;99.90;;;;;;5073086;28;20048;-73
2022/12/25 08:28:00;;;;;;;43.60;21.65;;;8.70;99.90;;;;;;5072934;28;20434;-71
2022/12/25 08:30:26;;;;;;;47.47;22.05;;;8.60;99.90;;;;;;5072990;28;20074;-73
2022/12/25 08:32:52;;;;;;;58.60;23.50;;;8.60;99.90;;;;;;5054588;28;20387;-72
2022/12/25 08:35:17;;;;;;;43.75;20.20;;;8.70;99.90;;;;;;5072685;28;20035;-72
2022/12/25 08:37:43;;;;;;;41.20;19.52;;;8.70;99.90;;;;;;5072678;28;20124;-72
2022/12/25 08:40:09;;;;;;;41.90;19.20;;;8.70;99.90;;;;;;5055078;28;20050;-72
2022/12/25 08:42:34;;;;;;;36.05;19.02;;;8.70;99.90;;;;;;5072439;28;20072;-72
2022/12/25 08:45:00;;;;;;;36.83;19.02;;;8.70;99.90;;;;;;5055011;28;20123;-72
2022/12/25 08:47:25;;;;;;;32.85;18.50;;;8.80;99.90;;;;;;5072322;28;20518;-72
2022/12/25 08:49:51;;;;;;;44.35;19.55;;;8.60;99.90;;;;;;5054479;28;20040;-72
2022/12/25 08:52:17;;;;;;;43.70;17.80;;;8.80;99.90;;;;;;5053888;28;20045;-72
2022/12/25 08:54:42;;;;;;;36.67;17.92;;;8.70;99.90;;;;;;5072286;28;20036;-72
2022/12/25 08:57:08;;;;;;;33.35;18.73;;;8.80;99.90;;;;;;5054425;28;20040;-71
2022/12/25 08:59:33;;;;;;;38.13;18.05;;;8.70;99.90;;;;;;5054208;28;20039;-72
2022/12/25 09:01:59;;;;;;;32.70;18.13;;;8.80;99.90;;;;;;5072518;28;20036;-73
2022/12/25 09:04:24;;;;;;;35.15;17.92;;;8.80;99.90;;;;;;5069308;28;20060;-74
2022/12/25 09:06:50;;;;;;;28.95;16.17;;;8.70;99.90;;;;;;5037573;28;20040;-74
2022/12/25 09:09:16;;;;;;;28.88;17.08;;;8.70;99.90;;;;;;5054684;28;20044;-72
2022/12/25 09:11:41;;;;;;;28.10;15.40;;;8.80;99.90;;;;;;5072114;28;20520;-73
2022/12/25 09:14:08;;;;;;;28.50;16.25;;;8.70;99.90;;;;;;5071626;28;20047;-72
2022/12/25 09:16:34;;;;;;;30.88;16.00;;;8.70;99.90;;;;;;5071919;28;20032;-72
2022/12/25 09:19:00;;;;;;;30.23;15.27;;;8.70;99.90;;;;;;5053973;28;20055;-73
2022/12/25 09:21:25;;;;;;;28.20;13.82;;;8.80;99.90;;;;;;5071645;28;20033;-73
2022/12/25 09:23:51;;;;;;;29.95;15.95;;;8.70;99.90;;;;;;5053854;28;20044;-73
2022/12/25 09:26:17;;;;;;;29.77;14.32;;;8.80;99.90;;;;;;5071962;28;20038;-72
2022/12/25 09:28:43;;;;;;;29.55;15.40;;;8.70;99.90;;;;;;5037210;28;20040;-72
2022/12/25 09:31:09;;;;;;;31.92;14.77;;;8.70;99.90;;;;;;5053547;28;20043;-72
2022/12/25 09:33:34;;;;;;;29.98;14.18;;;8.80;99.90;;;;;;5071350;28;20395;-72
2022/12/25 09:36:07;;;;;;;27.63;14.55;;;8.70;99.90;;;;;;5058255;28;20041;-72
2022/12/25 09:38:33;;;;;;;25.90;14.32;;;8.70;99.90;;;;;;5056722;28;20065;-72
2022/12/25 09:41:21;;;;;;;29.60;14.68;;;8.70;99.90;;;;;;5054448;28;20044;-73
2022/12/25 09:43:51;;;;;;;25.52;12.95;;;8.70;99.90;;;;;;5041009;28;20041;-74
2022/12/25 09:46:25;;;;;;;32.72;13.23;;;8.80;99.90;;;;;;5053922;28;20052;-73
2022/12/25 09:49:02;;;;;;;24.23;13.02;;;8.80;99.90;;;;;;5053590;28;20543;-74
2022/12/25 09:51:31;;;;;;;24.02;12.23;;;8.90;99.90;;;;;;5071567;28;20048;-74
2022/12/25 09:54:17;;;;;;;22.08;11.93;;;8.80;99.90;;;;;;5053196;28;20502;-74
2022/12/25 09:56:42;;;;;;;30.15;11.82;;;8.80;99.90;;;;;;5037195;28;20047;-73
2022/12/25 09:59:23;;;;;;;26.48;11.40;;;8.80;99.90;;;;;;5053877;28;20470;-73
2022/12/25 10:02:23;;;;;;;20.40;11.50;;;8.90;99.90;;;;;;5053705;28;20101;-73
2022/12/25 10:05:07;;;;;;;19.48;10.88;;;8.80;99.90;;;;;;5052673;28;20044;-72
2022/12/25 10:07:57;;;;;;;25.48;13.02;;;8.80;99.90;;;;;;5053567;28;20265;-72
2022/12/25 10:10:35;;;;;;;27.35;11.77;;;8.80;99.90;;;;;;5053129;28;20052;-73
2022/12/25 10:13:47;;;;;;;19.73;9.93;;;8.90;99.90;;;;;;5070857;28;20045;-72
2022/12/25 10:17:00;;;;;;;20.42;9.75;;;8.80;99.90;;;;;;5040357;28;20071;-73
2022/12/25 10:19:48;;;;;;;19.08;9.13;;;8.80;99.90;;;;;;5043235;28;20045;-73
2022/12/25 10:22:19;;;;;;;26.20;12.43;;;8.80;99.90;;;;;;5053016;28;20059;-74
2022/12/25 10:24:49;;;;;;;21.40;9.75;;;8.80;99.90;;;;;;5071118;28;20029;-74
2022/12/25 10:27:26;;;;;;;19.48;10.13;;;9.00;99.90;;;;;;5053393;28;20041;-74
2022/12/25 10:29:53;;;;;;;19.25;9.90;;;9.00;99.90;;;;;;5040911;28;20477;-74
2022/12/25 10:32:19;;;;;;;25.27;10.85;;;9.10;99.90;;;;;;5053035;28;20572;-73
2022/12/25 10:34:45;;;;;;;21.58;10.50;;;9.10;99.90;;;;;;5052842;28;20036;-74
2022/12/25 10:37:11;;;;;;;20.55;11.27;;;9.00;99.90;;;;;;5053351;28;20040;-73
2022/12/25 10:39:37;;;;;;;25.52;11.30;;;9.10;99.90;;;;;;5052822;28;20402;-73
2022/12/25 10:42:32;;;;;;;21.33;10.25;;;9.10;99.90;;;;;;5052953;28;20040;-73
2022/12/25 10:45:00;;;;;;;24.42;10.70;;;9.10;99.90;;;;;;5060073;28;20077;-73
2022/12/25 10:47:30;;;;;;;21.00;9.75;;;9.10;99.90;;;;;;5070883;28;20032;-73
2022/12/25 10:49:56;;;;;;;22.80;10.70;;;9.10;99.90;;;;;;5052956;28;20043;-73
2022/12/25 10:52:25;;;;;;;18.15;9.75;;;9.20;99.90;;;;;;5052564;28;20490;-73
2022/12/25 10:54:51;;;;;;;17.60;10.30;;;9.10;99.90;;;;;;5052816;28;20052;-71
2022/12/25 10:57:20;;;;;;;19.65;10.00;;;9.10;99.90;;;;;;5071039;28;20033;-73
2022/12/25 10:59:54;;;;;;;23.42;10.70;;;9.20;99.90;;;;;;5071035;28;20033;-74
2022/12/25 11:02:32;;;;;;;21.52;9.48;;;9.20;99.90;;;;;;5043724;28;20085;-73
2022/12/25 11:05:04;;;;;;;20.08;9.02;;;9.20;99.90;;;;;;5032334;28;20040;-74
2022/12/25 11:07:31;;;;;;;17.13;9.43;;;9.30;99.90;;;;;;5070380;28;20113;-73
2022/12/25 11:10:03;;;;;;;19.30;10.10;;;9.30;99.90;;;;;;5052559;28;20398;-73
2022/12/25 11:12:35;;;;;;;22.90;10.82;;;9.40;99.90;;;;;;5052234;28;20502;-73
2022/12/25 11:15:06;;;;;;;19.00;9.43;;;9.40;99.90;;;;;;5065129;28;20062;-72
2022/12/25 11:17:31;;;;;;;21.38;10.10;;;9.30;99.90;;;;;;5055943;28;20111;-72
2022/12/25 11:19:59;;;;;;;21.92;9.60;;;9.30;99.90;;;;;;5073931;28;20098;-73
2022/12/25 11:22:26;;;;;;;21.00;10.60;;;9.40;99.90;;;;;;5051753;28;20047;-73
2022/12/25 11:24:51;;;;;;;19.08;9.98;;;9.40;99.90;;;;;;5056366;28;20456;-73
2022/12/25 11:27:27;;;;;;;15.80;9.27;;;9.40;99.90;;;;;;5073844;28;20028;-73
2022/12/25 11:30:00;;;;;;;16.33;8.65;;;9.40;99.90;;;;;;5050196;28;20041;-73
2022/12/25 11:32:33;;;;;;;17.03;8.60;;;9.50;99.90;;;;;;5055694;28;20498;-75
2022/12/25 11:35:09;;;;;;;18.50;9.43;;;9.40;99.90;;;;;;5056126;28;20052;-74
2022/12/25 11:37:42;;;;;;;16.48;8.75;;;9.40;99.90;;;;;;5073479;28;20072;-72
2022/12/25 11:40:25;;;;;;;18.38;8.77;;;9.40;99.90;;;;;;5073841;28;20115;-72
2022/12/25 11:42:58;;;;;;;19.58;9.07;;;9.50;99.90;;;;;;5055651;28;20094;-72
2022/12/25 11:45:28;;;;;;;20.23;8.35;;;9.40;99.90;;;;;;5073916;28;20387;-73
2022/12/25 11:48:12;;;;;;;17.58;8.50;;;9.40;99.90;;;;;;5057093;28;20052;-71
2022/12/25 11:50:53;;;;;;;15.73;8.80;;;9.50;99.90;;;;;;5070447;28;20041;-72
2022/12/25 11:53:21;;;;;;;17.33;9.82;;;9.50;99.90;;;;;;5039269;28;20083;-72
2022/12/25 11:55:53;;;;;;;17.60;7.80;;;9.50;99.90;;;;;;5055426;28;20561;-73
2022/12/25 11:58:35;;;;;;;14.60;7.72;;;9.50;99.90;;;;;;5053298;28;20041;-72
2022/12/25 12:01:06;;;;;;;18.38;8.70;;;9.60;99.90;;;;;;5073348;28;20037;-73
2022/12/25 12:03:39;;;;;;;16.33;8.55;;;9.60;99.90;;;;;;5054937;28;20040;-72
2022/12/25 12:06:14;;;;;;;23.70;8.90;;;9.50;99.90;;;;;;5073114;28;20498;-73
2022/12/25 12:08:41;;;;;;;14.02;7.43;;;9.50;99.90;;;;;;5044533;28;20095;-73
2022/12/25 12:11:18;;;;;;;19.40;8.27;;;9.50;99.90;;;;;;5055106;28;20048;-73
2022/12/25 12:13:56;;;;;;;15.85;8.52;;;9.40;99.90;;;;;;5053183;28;20036;-72
2022/12/25 12:16:22;;;;;;;15.70;8.48;;;9.50;99.90;;;;;;5070730;28;20048;-73
2022/12/25 12:18:48;;;;;;;17.05;9.82;;;9.50;99.90;;;;;;5074456;28;20040;-73
2022/12/25 12:21:16;;;;;;;13.48;8.48;;;9.50;99.90;;;;;;5055827;28;20048;-72
2022/12/25 12:23:53;;;;;;;15.95;9.10;;;9.50;99.90;;;;;;5073515;28;20448;-72
2022/12/25 12:26:30;;;;;;;15.57;8.50;;;9.60;99.90;;;;;;5055251;28;20119;-72
2022/12/25 12:29:01;;;;;;;17.73;9.35;;;9.50;99.90;;;;;;5055190;28;20541;-72
2022/12/25 12:31:45;;;;;;;19.13;9.48;;;9.60;99.90;;;;;;5073171;28;20090;-72
2022/12/25 12:34:23;;;;;;;15.40;8.73;;;9.60;99.90;;;;;;5054742;28;20144;-72
2022/12/25 12:36:52;;;;;;;16.08;8.65;;;9.60;99.90;;;;;;5055679;28;20068;-72
2022/12/25 12:39:35;;;;;;;19.25;9.27;;;9.50;99.90;;;;;;5072461;28;20062;-73
2022/12/25 12:42:01;;;;;;;18.13;8.68;;;9.50;99.90;;;;;;5052562;28;20036;-72
2022/12/25 12:44:32;;;;;;;17.50;8.60;;;9.50;99.90;;;;;;5054180;28;20068;-72
2022/12/25 12:46:58;;;;;;;18.08;9.55;;;9.60;99.90;;;;;;5052185;28;20115;-72
2022/12/25 12:49:28;;;;;;;20.63;9.68;;;9.50;99.90;;;;;;5071296;28;20459;-72
2022/12/25 12:52:23;;;;;;;16.95;8.88;;;9.50;99.90;;;;;;5054473;28;20413;-72
2022/12/25 12:55:03;;;;;;;16.75;9.43;;;9.60;99.90;;;;;;5044856;28;20044;-72
2022/12/25 12:57:33;;;;;;;14.52;9.35;;;9.60;99.90;;;;;;5069659;28;20075;-72
2022/12/25 13:00:00;;;;;;;18.05;11.75;;;9.70;99.90;;;;;;5047643;28;20090;-73
2022/12/25 13:02:59;;;;;;;17.13;10.57;;;9.60;99.90;;;;;;5053686;28;20536;-72
2022/12/25 13:05:47;;;;;;;17.25;9.00;;;9.60;99.90;;;;;;5054302;28;20561;-72
2022/12/25 13:08:44;;;;;;;17.15;9.38;;;9.60;99.90;;;;;;5054251;28;20055;-72
2022/12/25 13:11:23;;;;;;;17.00;11.35;;;9.70;99.90;;;;;;5054362;28;20125;-72
2022/12/25 13:13:51;;;;;;;17.73;11.48;;;9.60;99.90;;;;;;5071819;28;20040;-73
2022/12/25 13:16:26;;;;;;;15.52;10.60;;;9.80;99.90;;;;;;5053626;28;20032;-73
2022/12/25 13:18:54;;;;;;;16.40;11.57;;;9.70;99.90;;;;;;5072017;28;20063;-71
2022/12/25 13:21:26;;;;;;;22.60;12.85;;;9.80;99.90;;;;;;5071626;28;20397;-72
2022/12/25 13:24:20;;;;;;;18.15;12.40;;;9.70;99.90;;;;;;5051177;28;20044;-71
2022/12/25 13:26:45;;;;;;;24.45;13.38;;;9.80;99.90;;;;;;5070917;28;20047;-72
2022/12/25 13:29:31;;;;;;;20.40;12.73;;;9.80;99.90;;;;;;5053740;28;20460;-72
2022/12/25 13:31:58;;;;;;;24.85;15.88;;;9.70;99.90;;;;;;5053950;28;20427;-72
2022/12/25 13:34:41;;;;;;;23.85;14.38;;;9.80;99.90;;;;;;5069870;28;20394;-72
2022/12/25 13:37:15;;;;;;;22.83;16.52;;;9.80;99.90;;;;;;5077379;28;20089;-72
2022/12/25 13:40:02;;;;;;;30.02;16.38;;;9.70;99.90;;;;;;5074179;28;20093;-72
2022/12/25 13:42:30;;;;;;;25.92;15.55;;;9.80;99.90;;;;;;5059627;28;20044;-72
2022/12/25 13:45:13;;;;;;;24.63;13.93;;;9.70;99.90;;;;;;5058548;28;20086;-72
2022/12/25 13:47:42;;;;;;;20.27;12.55;;;9.70;99.90;;;;;;5071622;28;20048;-73
2022/12/25 13:50:30;;;;;;;19.67;12.88;;;9.80;99.90;;;;;;5071834;28;20048;-71
2022/12/25 13:52:57;;;;;;;20.85;12.48;;;9.70;99.90;;;;;;5071140;28;20452;-72
2022/12/25 13:55:28;;;;;;;23.80;12.32;;;9.70;99.90;;;;;;5071645;28;20418;-72
2022/12/25 13:57:57;;;;;;;20.25;11.60;;;9.70;99.90;;;;;;5053128;28;20064;-72
2022/12/25 14:00:29;;;;;;;20.05;11.45;;;9.70;99.90;;;;;;5080196;28;20099;-72
2022/12/25 14:02:55;;;;;;;22.27;12.00;;;9.70;99.90;;;;;;5053324;28;20045;-72
2022/12/25 14:05:34;;;;;;;24.17;11.98;;;9.70;99.90;;;;;;5071512;28;20064;-71
2022/12/25 14:08:02;;;;;;;27.73;11.98;;;9.60;99.90;;;;;;5071439;28;20040;-72
2022/12/25 14:10:33;;;;;;;18.50;11.18;;;9.60;99.90;;;;;;5053327;28;20382;-71
2022/12/25 14:13:02;;;;;;;21.38;12.68;;;9.60;99.90;;;;;;5053033;28;20051;-72
2022/12/25 14:15:30;;;;;;;17.75;11.68;;;9.50;99.90;;;;;;5071294;28;20028;-72
2022/12/25 14:17:55;;;;;;;23.02;13.73;;;9.50;99.90;;;;;;5053451;28;20052;-72
2022/12/25 14:20:27;;;;;;;20.27;12.18;;;9.50;99.90;;;;;;5053104;28;20036;-71
2022/12/25 14:22:55;;;;;;;24.33;13.10;;;9.60;99.90;;;;;;5052789;28;20071;-72
2022/12/25 14:25:29;;;;;;;17.85;12.20;;;9.50;99.90;;;;;;5053450;28;20463;-71
2022/12/25 14:27:54;;;;;;;;;;;9.50;99.90;;;;;;5037285;28;20174;-72
2022/12/25 14:30:20;;;;;;;21.02;12.80;;;9.50;99.90;;;;;;5053643;28;19924;-72
2022/12/25 14:32:51;;;;;;;19.40;12.30;;;9.40;99.90;;;;;;5052957;28;20382;-72
2022/12/25 14:35:17;;;;;;;20.05;12.73;;;9.50;99.90;;;;;;5053304;28;20110;-72
2022/12/25 14:37:43;;;;;;;20.58;14.10;;;9.50;99.90;;;;;;5070776;28;20529;-72
2022/12/25 14:40:31;;;;;;;24.63;15.38;;;9.40;99.90;;;;;;5053110;28;20044;-71
2022/12/25 14:43:04;;;;;;;32.40;18.55;;;9.40;99.90;;;;;;5052873;28;20040;-71